createdAt,value
2023-02-04T00:01:08.979Z,34.21
2023-02-04T00:03:35.599Z,34.49
2023-02-04T00:06:02.267Z,34.24
2023-02-04T00:08:29.043Z,34.22
2023-02-04T00:10:55.649Z,34.57
2023-02-04T00:13:22.256Z,34.66
2023-02-04T00:15:48.882Z,34.39
2023-02-04T00:18:15.519Z,34.42
2023-02-04T00:20:42.102Z,34.50
2023-02-04T00:23:08.703Z,34.61
2023-02-04T00:25:35.286Z,34.73
2023-02-04T00:28:01.974Z,34.43
2023-02-04T00:30:28.745Z,34.52
2023-02-04T00:32:56.622Z,34.70
2023-02-04T00:35:23.978Z,34.57
2023-02-04T00:37:51.033Z,34.76
2023-02-04T00:40:17.864Z,35.06
2023-02-04T00:42:44.457Z,34.70
2023-02-04T00:45:12.619Z,34.97
2023-02-04T00:47:39.343Z,34.72
2023-02-04T00:50:06.442Z,34.94
2023-02-04T00:52:33.160Z,34.49
2023-02-04T00:54:59.770Z,34.52
2023-02-04T00:57:26.373Z,34.82
2023-02-04T00:59:52.976Z,34.29
2023-02-04T01:02:19.694Z,34.56
2023-02-04T01:04:46.359Z,34.68
2023-02-04T01:07:13.092Z,34.19
2023-02-04T01:09:39.660Z,34.45
2023-02-04T01:12:06.325Z,34.36
2023-02-04T01:14:32.882Z,34.59
2023-02-04T01:16:59.469Z,34.01
2023-02-04T01:19:26.086Z,34.70
2023-02-04T01:21:52.704Z,34.13
2023-02-04T01:24:19.281Z,34.64
2023-02-04T01:26:45.863Z,34.32
2023-02-04T01:29:12.449Z,34.07
2023-02-04T01:31:39.073Z,34.32
2023-02-04T01:34:05.706Z,34.48
2023-02-04T01:36:32.304Z,34.40
2023-02-04T01:39:00.961Z,34.33
2023-02-04T01:41:28.301Z,34.31
2023-02-04T01:43:55.092Z,34.54
2023-02-04T01:46:21.836Z,34.31
2023-02-04T01:48:48.549Z,34.42
2023-02-04T01:51:21.921Z,34.55
2023-02-04T01:53:48.516Z,34.30
2023-02-04T01:56:20.999Z,34.21
2023-02-04T01:58:48.606Z,34.03
2023-02-04T02:01:41.787Z,34.23
2023-02-04T02:04:14.258Z,34.19
2023-02-04T02:06:45.803Z,34.56
2023-02-04T02:09:12.750Z,34.08
2023-02-04T02:11:39.519Z,34.14
2023-02-04T02:14:06.333Z,34.34
2023-02-04T02:16:33.241Z,34.20
2023-02-04T02:19:00.103Z,34.47
2023-02-04T02:22:03.590Z,34.24
2023-02-04T02:24:32.842Z,34.40
2023-02-04T02:27:07.317Z,34.30
2023-02-04T02:29:34.751Z,34.43
2023-02-04T02:32:01.633Z,34.43
2023-02-04T02:34:30.317Z,34.70
2023-02-04T02:36:59.356Z,34.56
2023-02-04T02:39:26.743Z,34.06
2023-02-04T02:41:54.841Z,34.23
2023-02-04T02:44:21.440Z,34.15
2023-02-04T02:46:48.652Z,34.17
2023-02-04T02:49:19.650Z,33.98
2023-02-04T02:51:46.586Z,34.14
2023-02-04T02:54:29.510Z,34.20
2023-02-04T02:56:57.684Z,34.11
2023-02-04T02:59:25.376Z,34.13
2023-02-04T03:01:58.000Z,34.14
2023-02-04T03:04:27.224Z,33.94
2023-02-04T03:06:54.727Z,34.00
2023-02-04T03:09:21.333Z,34.09
2023-02-04T03:11:48.677Z,34.44
2023-02-04T03:14:15.672Z,34.08
2023-02-04T03:16:44.381Z,33.86
2023-02-04T03:19:13.793Z,34.50
2023-02-04T03:21:41.604Z,34.17
2023-02-04T03:24:08.385Z,34.50
2023-02-04T03:26:35.236Z,34.07
2023-02-04T03:29:02.315Z,34.10
2023-02-04T03:31:29.032Z,34.38
2023-02-04T03:33:55.666Z,34.26
2023-02-04T03:36:22.488Z,34.56
2023-02-04T03:38:49.036Z,34.15
2023-02-04T03:41:15.626Z,34.54
2023-02-04T03:43:42.216Z,34.18
2023-02-04T03:46:08.882Z,33.99
2023-02-04T03:48:35.481Z,34.05
2023-02-04T03:51:02.096Z,34.09
2023-02-04T03:53:28.741Z,34.14
2023-02-04T03:55:55.317Z,34.22
2023-02-04T03:58:22.268Z,34.21
2023-02-04T04:00:49.184Z,33.99
2023-02-04T04:03:16.027Z,34.18
2023-02-04T04:05:42.652Z,34.01
2023-02-04T04:08:09.265Z,34.18
2023-02-04T04:10:35.860Z,34.04
2023-02-04T04:13:02.437Z,33.74
2023-02-04T04:15:29.014Z,33.94
2023-02-04T04:17:55.597Z,33.89
2023-02-04T04:20:25.475Z,34.04
2023-02-04T04:22:52.619Z,34.13
2023-02-04T04:25:19.727Z,33.81
2023-02-04T04:27:46.553Z,34.09
2023-02-04T04:30:13.164Z,34.09
2023-02-04T04:32:39.760Z,34.25
2023-02-04T04:35:06.639Z,34.22
2023-02-04T04:37:35.155Z,33.99
2023-02-04T04:40:02.786Z,34.19
2023-02-04T04:42:29.564Z,34.10
2023-02-04T04:44:56.238Z,34.00
2023-02-04T04:47:22.978Z,34.18
2023-02-04T04:49:49.553Z,34.10
2023-02-04T04:52:16.109Z,34.48
2023-02-04T04:54:42.727Z,33.99
2023-02-04T04:57:09.292Z,33.94
2023-02-04T04:59:35.881Z,33.95
2023-02-04T05:02:02.468Z,34.19
2023-02-04T05:04:29.050Z,34.37
2023-02-04T05:06:55.688Z,34.18
2023-02-04T05:09:22.398Z,34.16
2023-02-04T05:11:48.971Z,34.17
2023-02-04T05:14:15.568Z,34.23
2023-02-04T05:16:42.243Z,33.93
2023-02-04T05:19:08.965Z,34.08
2023-02-04T05:21:35.541Z,34.15
2023-02-04T05:24:02.192Z,34.32
2023-02-04T05:26:31.091Z,34.16
2023-02-04T05:29:00.471Z,34.19
2023-02-04T05:31:27.967Z,33.99
2023-02-04T05:33:54.871Z,33.98
2023-02-04T05:36:21.889Z,33.98
2023-02-04T05:38:48.579Z,34.16
2023-02-04T05:41:15.650Z,33.98
2023-02-04T05:43:43.123Z,34.18
2023-02-04T05:46:09.974Z,33.89
2023-02-04T05:48:36.767Z,34.15
2023-02-04T05:51:03.468Z,33.85
2023-02-04T05:53:30.032Z,34.33
2023-02-04T05:55:56.621Z,33.79
2023-02-04T05:58:23.447Z,34.10
2023-02-04T06:00:50.024Z,33.91
2023-02-04T06:03:19.522Z,34.04
2023-02-04T06:05:46.259Z,33.82
2023-02-04T06:08:15.784Z,34.24
2023-02-04T06:10:42.428Z,34.07
2023-02-04T06:13:09.025Z,34.09
2023-02-04T06:15:35.629Z,34.05
2023-02-04T06:18:02.246Z,33.99
2023-02-04T06:20:28.975Z,34.20
2023-02-04T06:22:55.590Z,34.03
2023-02-04T06:25:22.490Z,33.91
2023-02-04T06:27:49.564Z,34.01
2023-02-04T06:30:16.927Z,33.92
2023-02-04T06:32:43.593Z,34.51
2023-02-04T06:35:10.857Z,33.90
2023-02-04T06:37:37.422Z,33.94
2023-02-04T06:40:05.194Z,33.83
2023-02-04T06:42:31.836Z,34.07
2023-02-04T06:44:58.410Z,34.22
2023-02-04T06:47:25.028Z,34.09
2023-02-04T06:49:51.694Z,34.13
2023-02-04T06:52:18.280Z,34.11
2023-02-04T06:54:44.862Z,34.04
2023-02-04T06:57:12.301Z,34.18
2023-02-04T06:59:40.539Z,33.92
2023-02-04T07:02:08.005Z,33.75
2023-02-04T07:04:35.401Z,34.04
2023-02-04T07:07:02.116Z,33.92
2023-02-04T07:09:28.915Z,33.62
2023-02-04T07:11:55.505Z,33.72
2023-02-04T07:14:22.145Z,33.95
2023-02-04T07:16:48.735Z,33.72
2023-02-04T07:19:15.335Z,33.96
2023-02-04T07:21:41.936Z,34.10
2023-02-04T07:24:08.509Z,34.60
2023-02-04T07:26:35.440Z,34.59
2023-02-04T07:29:02.009Z,34.46
2023-02-04T07:31:28.693Z,34.53
2023-02-04T07:33:55.384Z,34.66
2023-02-04T07:36:22.130Z,34.12
2023-02-04T07:38:48.779Z,34.60
2023-02-04T07:41:15.437Z,34.56
2023-02-04T07:43:42.261Z,34.36
2023-02-04T07:46:08.936Z,34.56
2023-02-04T07:48:35.562Z,34.51
2023-02-04T07:51:02.408Z,34.20
2023-02-04T07:53:29.010Z,33.78
2023-02-04T07:55:55.569Z,34.14
2023-02-04T07:58:23.125Z,34.07
2023-02-04T08:00:49.694Z,34.26
2023-02-04T08:03:16.294Z,33.81
2023-02-04T08:05:42.921Z,33.68
2023-02-04T08:08:09.470Z,33.54
2023-02-04T08:10:36.049Z,33.75
2023-02-04T08:13:02.640Z,33.22
2023-02-04T08:15:29.256Z,33.05
2023-02-04T08:17:55.925Z,32.70
2023-02-04T08:20:22.538Z,31.54
2023-02-04T08:22:49.186Z,32.09
2023-02-04T08:25:16.010Z,31.55
2023-02-04T08:27:42.923Z,31.16
2023-02-04T08:30:10.764Z,31.29
2023-02-04T08:32:39.276Z,30.79
2023-02-04T08:35:07.443Z,30.17
2023-02-04T08:37:34.620Z,29.63
2023-02-04T08:40:01.202Z,29.85
2023-02-04T08:42:27.943Z,29.72
2023-02-04T08:44:54.536Z,29.04
2023-02-04T08:47:21.148Z,28.42
2023-02-04T08:49:47.720Z,28.72
2023-02-04T08:52:14.307Z,28.54
2023-02-04T08:54:40.905Z,28.57
2023-02-04T08:57:07.488Z,29.40
2023-02-04T08:59:34.101Z,29.55
2023-02-04T09:02:00.823Z,29.93
2023-02-04T09:04:28.509Z,30.41
2023-02-04T09:06:55.217Z,30.83
2023-02-04T09:09:23.324Z,30.91
2023-02-04T09:11:50.527Z,30.78
2023-02-04T09:14:17.221Z,30.58
2023-02-04T09:16:43.945Z,31.43
2023-02-04T09:19:12.794Z,31.21
2023-02-04T09:21:39.386Z,32.24
2023-02-04T09:24:05.993Z,32.74
2023-02-04T09:26:32.595Z,32.68
2023-02-04T09:28:59.312Z,32.74
2023-02-04T09:31:26.060Z,32.45
2023-02-04T09:33:52.719Z,32.98
2023-02-04T09:36:19.371Z,32.40
2023-02-04T09:38:45.929Z,33.01
2023-02-04T09:41:13.524Z,32.94
2023-02-04T09:43:44.169Z,32.35
2023-02-04T09:46:21.607Z,32.13
2023-02-04T09:48:49.407Z,30.97
2023-02-04T09:51:23.616Z,31.09
2023-02-04T09:53:53.901Z,31.60
2023-02-04T09:56:20.747Z,31.31
2023-02-04T09:58:47.492Z,30.79
2023-02-04T10:01:17.139Z,31.79
2023-02-04T10:03:47.125Z,31.29
2023-02-04T10:06:19.243Z,30.95
2023-02-04T10:08:48.517Z,30.48
2023-02-04T10:11:18.040Z,31.39
2023-02-04T10:13:53.807Z,31.20
2023-02-04T10:16:29.918Z,29.48
2023-02-04T10:19:01.939Z,27.67
2023-02-04T10:21:32.231Z,29.54
2023-02-04T10:24:02.646Z,31.01
2023-02-04T10:26:31.939Z,31.95
2023-02-04T10:29:04.359Z,32.42
2023-02-04T10:31:39.720Z,32.50
2023-02-04T10:34:13.787Z,33.00
2023-02-04T10:36:42.931Z,33.03
2023-02-04T10:39:19.644Z,33.15
2023-02-04T10:41:51.663Z,32.87
2023-02-04T10:44:39.826Z,33.27
2023-02-04T10:47:18.030Z,33.62
2023-02-04T10:49:54.891Z,33.42
2023-02-04T10:52:24.192Z,32.86
2023-02-04T10:54:51.051Z,32.44
2023-02-04T10:57:27.470Z,32.75
2023-02-04T10:59:57.907Z,32.32
2023-02-04T11:02:37.027Z,32.21
2023-02-04T11:05:05.075Z,32.40
2023-02-04T11:07:32.083Z,32.91
2023-02-04T11:09:58.751Z,33.13
2023-02-04T11:13:05.851Z,33.29
2023-02-04T11:15:51.070Z,32.85
2023-02-04T11:18:20.544Z,33.26
2023-02-04T11:20:49.171Z,32.84
2023-02-04T11:23:16.957Z,32.55
2023-02-04T11:25:43.866Z,31.87
2023-02-04T11:28:15.801Z,32.01
2023-02-04T11:30:42.726Z,32.59
2023-02-04T11:33:25.125Z,32.10
2023-02-04T11:36:04.554Z,32.48
2023-02-04T11:38:32.435Z,32.78
2023-02-04T11:41:00.462Z,32.51
2023-02-04T11:43:28.102Z,32.64
2023-02-04T11:46:10.207Z,32.58
2023-02-04T11:48:37.056Z,32.82
2023-02-04T11:51:11.611Z,32.74
2023-02-04T11:53:38.184Z,32.77
2023-02-04T11:56:05.007Z,32.98
2023-02-04T11:58:32.448Z,33.42
2023-02-04T12:00:59.755Z,34.13
2023-02-04T12:03:31.137Z,34.04
2023-02-04T12:05:59.138Z,33.49
2023-02-04T12:08:36.798Z,33.22
2023-02-04T12:11:15.633Z,32.72
2023-02-04T12:13:54.171Z,32.55
2023-02-04T12:16:20.987Z,33.15
2023-02-04T12:18:47.836Z,32.94
2023-02-04T12:21:14.639Z,33.00
2023-02-04T12:23:44.480Z,33.22
2023-02-04T12:26:11.845Z,32.97
2023-02-04T12:28:38.454Z,32.92
2023-02-04T12:31:05.134Z,32.79
2023-02-04T12:33:31.849Z,32.46
2023-02-04T12:35:58.425Z,31.13
2023-02-04T12:38:25.125Z,30.36
2023-02-04T12:40:51.753Z,31.57
2023-02-04T12:43:18.369Z,32.10
2023-02-04T12:45:46.439Z,32.30
2023-02-04T12:48:14.117Z,32.58
2023-02-04T12:50:41.048Z,32.49
2023-02-04T12:53:09.188Z,32.73
2023-02-04T12:55:36.382Z,33.11
2023-02-04T12:58:03.202Z,32.94
2023-02-04T13:00:30.368Z,32.49
2023-02-04T13:02:59.168Z,33.03
2023-02-04T13:05:26.653Z,32.87
2023-02-04T13:07:53.239Z,32.66
2023-02-04T13:10:21.716Z,32.62
2023-02-04T13:12:48.397Z,32.67
2023-02-04T13:15:15.024Z,32.73
2023-02-04T13:17:41.625Z,33.21
2023-02-04T13:20:09.100Z,32.96
2023-02-04T13:22:35.766Z,33.22
2023-02-04T13:25:04.097Z,33.19
2023-02-04T13:27:31.900Z,33.38
2023-02-04T13:29:58.639Z,33.46
2023-02-04T13:32:25.338Z,33.23
2023-02-04T13:34:51.930Z,33.57
2023-02-04T13:37:18.541Z,33.03
2023-02-04T13:39:45.212Z,33.60
2023-02-04T13:42:11.830Z,32.94
2023-02-04T13:44:38.421Z,32.98
2023-02-04T13:47:05.081Z,33.14
2023-02-04T13:49:31.682Z,32.22
2023-02-04T13:51:58.294Z,31.63
2023-02-04T13:54:25.386Z,32.06
2023-02-04T13:56:52.131Z,31.44
2023-02-04T13:59:20.890Z,31.83
2023-02-04T14:01:47.702Z,32.08
2023-02-04T14:04:14.415Z,31.79
2023-02-04T14:06:43.704Z,32.04
2023-02-04T14:09:12.185Z,32.15
2023-02-04T14:11:39.586Z,31.91
2023-02-04T14:14:06.761Z,32.50
2023-02-04T14:16:33.466Z,32.39
2023-02-04T14:19:00.736Z,32.59
2023-02-04T14:21:27.475Z,32.64
2023-02-04T14:23:54.084Z,32.74
2023-02-04T14:26:20.816Z,33.24
2023-02-04T14:28:47.405Z,32.95
2023-02-04T14:31:14.006Z,32.80
2023-02-04T14:33:40.584Z,32.67
2023-02-04T14:36:07.488Z,33.06
2023-02-04T14:38:34.298Z,32.93
2023-02-04T14:41:01.238Z,33.08
2023-02-04T14:43:27.938Z,33.39
2023-02-04T14:45:54.615Z,33.30
2023-02-04T14:48:21.311Z,33.37
2023-02-04T14:50:47.993Z,33.79
2023-02-04T14:53:14.588Z,33.90
2023-02-04T14:55:41.153Z,33.60
2023-02-04T14:58:07.856Z,33.61
2023-02-04T15:00:34.853Z,33.49
2023-02-04T15:03:01.660Z,33.71
2023-02-04T15:05:28.300Z,33.15
2023-02-04T15:07:54.971Z,33.13
2023-02-04T15:10:22.949Z,33.01
2023-02-04T15:12:49.702Z,33.62
2023-02-04T15:15:16.570Z,33.66
2023-02-04T15:17:43.158Z,33.79
2023-02-04T15:20:11.313Z,33.95
2023-02-04T15:22:38.375Z,33.86
2023-02-04T15:25:06.109Z,33.96
2023-02-04T15:27:32.714Z,33.64
2023-02-04T15:29:59.326Z,33.26
2023-02-04T15:32:26.364Z,33.87
2023-02-04T15:34:53.123Z,33.80
2023-02-04T15:37:19.731Z,34.02
2023-02-04T15:39:46.435Z,33.58
2023-02-04T15:42:13.182Z,33.65
2023-02-04T15:44:39.944Z,33.97
2023-02-04T15:47:06.662Z,33.92
2023-02-04T15:49:33.961Z,33.79
2023-02-04T15:52:02.119Z,33.89
2023-02-04T15:54:28.829Z,33.90
2023-02-04T15:56:55.589Z,33.72
2023-02-04T15:59:22.188Z,33.97
2023-02-04T16:01:49.689Z,34.18
2023-02-04T16:04:16.532Z,33.84
2023-02-04T16:06:50.274Z,34.23
2023-02-04T16:09:20.228Z,34.09
2023-02-04T16:11:46.819Z,33.96
2023-02-04T16:14:13.419Z,34.01
2023-02-04T16:16:40.033Z,33.67
2023-02-04T16:19:06.704Z,33.88
2023-02-04T16:21:33.278Z,34.01
2023-02-04T16:23:59.860Z,33.93
2023-02-04T16:26:26.524Z,34.13
2023-02-04T16:28:54.880Z,34.00
2023-02-04T16:31:21.596Z,34.36
2023-02-04T16:33:48.256Z,34.37
2023-02-04T16:36:15.448Z,33.83
2023-02-04T16:38:43.576Z,33.99
2023-02-04T16:41:11.102Z,34.04
2023-02-04T16:43:37.738Z,34.04
2023-02-04T16:46:04.623Z,34.14
2023-02-04T16:48:31.457Z,34.31
2023-02-04T16:50:58.036Z,34.27
2023-02-04T16:53:24.861Z,34.09
2023-02-04T16:55:51.574Z,34.20
2023-02-04T16:58:19.442Z,34.02
2023-02-04T17:00:46.298Z,34.37
2023-02-04T17:03:13.502Z,34.08
2023-02-04T17:05:41.014Z,34.25
2023-02-04T17:08:08.625Z,33.92
2023-02-04T17:10:54.345Z,34.34
2023-02-04T17:13:21.103Z,34.05
2023-02-04T17:15:47.688Z,34.17
2023-02-04T17:18:14.393Z,33.95
2023-02-04T17:20:41.053Z,34.08
2023-02-04T17:23:08.122Z,33.75
2023-02-04T17:25:35.191Z,34.05
2023-02-04T17:28:02.236Z,34.34
2023-02-04T17:30:29.311Z,34.14
2023-02-04T17:32:55.934Z,34.16
2023-02-04T17:35:22.741Z,34.27
2023-02-04T17:37:49.412Z,34.03
2023-02-04T17:40:16.086Z,33.96
2023-02-04T17:42:42.742Z,33.92
2023-02-04T17:45:10.781Z,34.21
2023-02-04T17:47:38.587Z,33.61
2023-02-04T17:50:07.962Z,33.74
2023-02-04T17:52:34.733Z,33.85
2023-02-04T17:55:22.318Z,33.72
2023-02-04T17:57:49.905Z,33.95
2023-02-04T18:00:20.273Z,33.82
2023-02-04T18:02:49.072Z,34.06
2023-02-04T18:05:19.410Z,34.30
2023-02-04T18:08:06.067Z,33.74
2023-02-04T18:10:36.540Z,33.97
2023-02-04T18:13:22.595Z,34.45
2023-02-04T18:15:52.454Z,34.12
2023-02-04T18:18:37.135Z,34.09
2023-02-04T18:21:23.913Z,34.38
2023-02-04T18:24:21.471Z,33.90
2023-02-04T18:26:50.692Z,34.01
2023-02-04T18:29:37.522Z,33.81
2023-02-04T18:32:13.148Z,33.97
2023-02-04T18:34:43.869Z,33.52
2023-02-04T18:37:29.258Z,33.91
2023-02-04T18:40:11.090Z,33.86
2023-02-04T18:42:40.956Z,34.09
2023-02-04T18:45:13.872Z,33.20
2023-02-04T18:47:41.241Z,33.25
2023-02-04T18:50:35.233Z,33.61
2023-02-04T18:53:07.782Z,33.70
2023-02-04T18:55:37.059Z,33.39
2023-02-04T18:58:27.717Z,33.87
2023-02-04T19:01:25.385Z,33.68
2023-02-04T19:04:00.921Z,33.68
2023-02-04T19:06:28.904Z,33.76
2023-02-04T19:09:18.053Z,33.57
2023-02-04T19:11:51.504Z,33.77
2023-02-04T19:14:27.140Z,33.87
2023-02-04T19:17:01.430Z,33.85
2023-02-04T19:19:40.177Z,33.74
2023-02-04T19:22:19.910Z,33.71
2023-02-04T19:24:47.397Z,33.91
2023-02-04T19:27:34.631Z,33.88
2023-02-04T19:30:22.207Z,34.11
2023-02-04T19:32:55.583Z,33.80
2023-02-04T19:35:24.743Z,33.72
2023-02-04T19:38:02.503Z,33.61
2023-02-04T19:40:38.033Z,33.14
2023-02-04T19:43:22.188Z,33.96
2023-02-04T19:45:52.836Z,33.70
2023-02-04T19:48:45.920Z,33.64
2023-02-04T19:51:29.234Z,33.58
2023-02-04T19:54:02.383Z,33.63
2023-02-04T19:56:46.894Z,34.01
2023-02-04T19:59:27.494Z,33.71
2023-02-04T20:02:20.149Z,33.71
2023-02-04T20:04:52.531Z,33.66
2023-02-04T20:07:20.612Z,33.60
2023-02-04T20:09:47.453Z,33.40
2023-02-04T20:12:16.215Z,33.62
2023-02-04T20:14:49.268Z,33.18
2023-02-04T20:17:54.447Z,33.34
2023-02-04T20:20:26.142Z,33.77
2023-02-04T20:22:58.499Z,33.44
2023-02-04T20:25:37.088Z,33.46
2023-02-04T20:28:21.449Z,33.24
2023-02-04T20:30:51.935Z,33.66
2023-02-04T20:33:34.775Z,33.73
2023-02-04T20:36:26.043Z,33.87
2023-02-04T20:39:08.701Z,33.35
2023-02-04T20:41:37.698Z,33.96
2023-02-04T20:44:17.258Z,33.77
2023-02-04T20:46:43.882Z,33.60
2023-02-04T20:49:25.045Z,33.26
2023-02-04T20:51:59.222Z,33.69
2023-02-04T20:54:29.500Z,33.62
2023-02-04T20:57:15.496Z,33.55
2023-02-04T20:59:42.846Z,33.44
2023-02-04T21:02:21.008Z,33.48
2023-02-04T21:04:53.578Z,33.67
2023-02-04T21:07:22.213Z,33.68
2023-02-04T21:09:49.375Z,33.80
2023-02-04T21:12:16.128Z,33.46
2023-02-04T21:14:42.917Z,33.29
2023-02-04T21:17:09.552Z,33.57
2023-02-04T21:19:36.139Z,33.93
2023-02-04T21:22:02.733Z,33.80
2023-02-04T21:24:31.822Z,33.23
2023-02-04T21:26:58.636Z,33.24
2023-02-04T21:29:26.112Z,33.19
2023-02-04T21:31:54.435Z,33.57
2023-02-04T21:34:21.594Z,33.24
2023-02-04T21:36:48.344Z,33.51
2023-02-04T21:39:15.019Z,33.33
2023-02-04T21:41:41.597Z,33.38
2023-02-04T21:44:08.213Z,33.39
2023-02-04T21:46:34.953Z,33.48
2023-02-04T21:49:01.639Z,33.61
2023-02-04T21:51:28.350Z,33.21
2023-02-04T21:53:54.995Z,33.18
2023-02-04T21:56:21.562Z,33.50
2023-02-04T21:58:48.129Z,32.85
2023-02-04T22:01:14.694Z,33.36
2023-02-04T22:03:41.360Z,33.44
2023-02-04T22:06:08.309Z,33.91
2023-02-04T22:08:34.900Z,33.62
2023-02-04T22:11:01.533Z,33.51
2023-02-04T22:13:46.671Z,33.03
2023-02-04T22:16:13.403Z,33.37
2023-02-04T22:18:40.018Z,33.70
2023-02-04T22:21:06.582Z,33.32
2023-02-04T22:23:33.198Z,33.49
2023-02-04T22:25:59.792Z,33.21
2023-02-04T22:28:26.366Z,33.51
2023-02-04T22:30:54.292Z,33.73
2023-02-04T22:33:21.081Z,33.33
2023-02-04T22:35:48.497Z,33.35
2023-02-04T22:38:15.137Z,33.19
2023-02-04T22:40:41.738Z,33.32
2023-02-04T22:43:08.421Z,33.03
2023-02-04T22:45:35.300Z,33.29
2023-02-04T22:48:02.101Z,33.40
2023-02-04T22:50:28.683Z,33.07
2023-02-04T22:52:55.478Z,33.00
2023-02-04T22:55:22.122Z,33.01
2023-02-04T22:57:48.732Z,32.94
2023-02-04T23:00:16.247Z,33.24
2023-02-04T23:02:42.837Z,33.18
2023-02-04T23:05:09.437Z,33.01
2023-02-04T23:07:36.800Z,33.14
2023-02-04T23:10:03.924Z,32.81
2023-02-04T23:12:30.509Z,32.77
2023-02-04T23:14:57.118Z,33.07
2023-02-04T23:17:23.779Z,33.13
2023-02-04T23:19:50.351Z,33.19
2023-02-04T23:22:17.242Z,32.93
2023-02-04T23:24:44.171Z,33.12
2023-02-04T23:27:11.607Z,33.05
2023-02-04T23:29:39.763Z,33.18
2023-02-04T23:32:06.441Z,33.20
2023-02-04T23:34:33.068Z,33.13
2023-02-04T23:36:59.779Z,33.06
2023-02-04T23:39:26.525Z,33.20
2023-02-04T23:41:53.165Z,33.09
2023-02-04T23:44:19.816Z,33.08
2023-02-04T23:46:46.458Z,33.04
2023-02-04T23:49:13.150Z,33.31
2023-02-04T23:51:39.973Z,33.30
2023-02-04T23:54:07.212Z,33.00
2023-02-04T23:56:33.816Z,33.31
2023-02-04T23:59:01.237Z,33.10
